Time;durP1;ratioP1;P1;durP2;ratioP2;P2;SDS_P1;SDS_P2;PMS_P1;PMS_P2;Temp;Humidity;BMP_temperature;BMP_pressure;BME280_temperature;BME280_humidity;BME280_pressure;Samples;Min_cycle;Max_cycle;Signal;HPM_P1;HPM_P2
2022/11/28 00:01:09;;;;;;;50.60;33.30;;;6.40;96.20;;;;;;5067691;28;20434;-88
2022/11/28 00:03:34;;;;;;;42.17;30.87;;;6.40;96.20;;;;;;5068160;28;20398;-87
2022/11/28 00:06:04;;;;;;;58.60;35.90;;;6.40;96.20;;;;;;5065830;28;20435;-87
2022/11/28 00:08:31;;;;;;;45.17;31.40;;;6.50;96.20;;;;;;5085695;28;20408;-88
2022/11/28 00:10:56;;;;;;;41.37;30.70;;;6.50;96.20;;;;;;5084093;28;20398;-88
2022/11/28 00:13:22;;;;;;;55.07;35.17;;;6.50;96.10;;;;;;5069133;28;20409;-88
2022/11/28 00:15:55;;;;;;;55.72;35.30;;;6.50;96.20;;;;;;5084213;28;20429;-86
2022/11/28 00:18:21;;;;;;;44.15;31.65;;;6.50;96.20;;;;;;5068660;28;20406;-88
2022/11/28 00:20:47;;;;;;;45.65;31.40;;;6.50;96.20;;;;;;5068744;28;20788;-88
2022/11/28 00:23:12;;;;;;;53.08;33.85;;;6.50;96.10;;;;;;5067819;28;20417;-87
2022/11/28 00:25:38;;;;;;;51.33;33.97;;;6.50;96.10;;;;;;5085536;28;20418;-88
2022/11/28 00:28:03;;;;;;;46.90;32.42;;;6.50;96.20;;;;;;5083641;28;20402;-88
2022/11/28 00:30:29;;;;;;;64.55;37.60;;;6.50;96.10;;;;;;5068505;28;20505;-88
2022/11/28 00:32:55;;;;;;;48.87;32.87;;;6.50;96.20;;;;;;5083020;28;20907;-87
2022/11/28 00:35:20;;;;;;;37.50;28.42;;;6.50;96.10;;;;;;5068640;28;20513;-88
2022/11/28 00:37:46;;;;;;;54.40;34.57;;;6.50;96.00;;;;;;5084575;28;20467;-87
2022/11/28 00:40:14;;;;;;;34.03;26.58;;;6.50;96.10;;;;;;5086104;28;20459;-88
2022/11/28 00:42:40;;;;;;;57.97;35.95;;;6.50;96.00;;;;;;5068615;28;20773;-89
2022/11/28 00:45:06;;;;;;;55.17;34.53;;;6.50;96.00;;;;;;5083228;28;20410;-88
2022/11/28 00:47:31;;;;;;;42.45;29.77;;;6.50;96.10;;;;;;5068377;28;20406;-87
2022/11/28 00:49:57;;;;;;;56.00;34.40;;;6.50;96.00;;;;;;5083000;28;20478;-88
2022/11/28 00:52:23;;;;;;;41.95;30.17;;;6.60;96.10;;;;;;5085147;28;20402;-86
2022/11/28 00:54:48;;;;;;;55.83;34.57;;;6.40;96.00;;;;;;5065453;28;20554;-87
2022/11/28 00:57:14;;;;;;;50.03;32.58;;;6.40;95.90;;;;;;5068017;28;20422;-88
2022/11/28 00:59:39;;;;;;;57.60;35.20;;;6.40;96.00;;;;;;5067326;28;20413;-88
2022/11/28 01:02:05;;;;;;;47.97;32.80;;;6.40;96.00;;;;;;5066847;28;20464;-88
2022/11/28 01:04:30;;;;;;;56.78;35.00;;;6.40;96.10;;;;;;5084923;28;20386;-89
2022/11/28 01:06:56;;;;;;;54.73;34.50;;;6.40;96.10;;;;;;5066311;28;20406;-88
2022/11/28 01:09:23;;;;;;;60.55;35.83;;;6.40;96.10;;;;;;5085376;28;20718;-88
2022/11/28 01:11:50;;;;;;;71.85;39.22;;;6.40;96.10;;;;;;5083382;28;20505;-88
2022/11/28 01:14:19;;;;;;;70.20;38.75;;;6.40;96.10;;;;;;5084885;28;20792;-87
2022/11/28 01:16:45;;;;;;;86.57;42.53;;;6.50;96.10;;;;;;5083559;28;20406;-87
2022/11/28 01:19:11;;;;;;;51.53;32.75;;;6.40;96.10;;;;;;5083707;28;20402;-88
2022/11/28 01:21:36;;;;;;;57.78;34.05;;;6.40;96.20;;;;;;5084581;28;20506;-87
2022/11/28 01:24:02;;;;;;;91.73;42.60;;;6.50;96.10;;;;;;5066188;28;20923;-88
2022/11/28 01:26:29;;;;;;;64.70;37.43;;;6.40;96.40;;;;;;5084886;28;20506;-88
2022/11/28 01:28:55;;;;;;;71.03;39.60;;;6.40;96.10;;;;;;5082194;28;20402;-88
2022/11/28 01:31:24;;;;;;;96.28;45.70;;;6.50;96.10;;;;;;5084746;28;20413;-88
2022/11/28 01:33:50;;;;;;;78.88;41.75;;;6.50;96.10;;;;;;5065954;28;20406;-86
2022/11/28 01:36:17;;;;;;;81.57;42.30;;;6.50;96.20;;;;;;5083869;28;20429;-88
2022/11/28 01:38:43;;;;;;;62.67;37.92;;;6.50;96.20;;;;;;5084145;28;20400;-86
2022/11/28 01:41:10;;;;;;;66.25;38.45;;;6.50;96.20;;;;;;5065983;28;20969;-88
2022/11/28 01:43:36;;;;;;;92.35;46.58;;;6.40;96.20;;;;;;5084248;28;20402;-87
2022/11/28 01:46:04;;;;;;;71.10;40.33;;;6.40;96.20;;;;;;5065496;28;20394;-89
2022/11/28 01:48:40;;;;;;;92.53;47.60;;;6.50;96.30;;;;;;5067495;28;20406;-88
2022/11/28 01:51:08;;;;;;;79.75;42.53;;;6.50;96.30;;;;;;5082631;28;20757;-87
2022/11/28 01:53:38;;;;;;;70.25;41.55;;;6.50;96.20;;;;;;5083688;28;20414;-87
2022/11/28 01:56:12;;;;;;;85.03;45.33;;;6.50;96.30;;;;;;5083593;28;20453;-87
2022/11/28 01:58:41;;;;;;;72.00;40.90;;;6.50;96.30;;;;;;5082909;28;20406;-89
2022/11/28 02:01:08;;;;;;;81.30;45.00;;;6.50;96.20;;;;;;5084269;28;20402;-87
2022/11/28 02:03:42;;;;;;;85.57;45.30;;;6.50;96.20;;;;;;5065024;28;20420;-87
2022/11/28 02:06:09;;;;;;;80.53;43.73;;;6.50;96.30;;;;;;5084129;28;20432;-87
2022/11/28 02:08:35;;;;;;;74.70;43.20;;;6.50;96.30;;;;;;5082622;28;20406;-88
2022/11/28 02:11:38;;;;;;;74.43;44.00;;;6.50;96.20;;;;;;5081789;28;20409;-88
2022/11/28 02:14:29;;;;;;;64.03;40.58;;;6.50;96.20;;;;;;5083256;28;20438;-88
2022/11/28 02:16:57;;;;;;;89.85;48.13;;;6.50;96.20;;;;;;5069521;28;20410;-87
2022/11/28 02:19:35;;;;;;;88.22;47.45;;;6.60;96.30;;;;;;5087826;28;20449;-86
2022/11/28 02:22:20;;;;;;;64.07;41.60;;;6.60;96.30;;;;;;5086236;28;20414;-87
2022/11/28 02:24:55;;;;;;;66.63;42.47;;;6.60;96.30;;;;;;5084500;28;20421;-88
2022/11/28 02:27:53;;;;;;;75.43;44.83;;;6.60;96.30;;;;;;5070440;28;20508;-88
2022/11/28 02:30:24;;;;;;;69.88;42.88;;;6.60;96.30;;;;;;5037285;28;20406;-87
2022/11/28 02:32:56;;;;;;;63.40;42.30;;;6.60;96.30;;;;;;5086378;28;20406;-87
2022/11/28 02:35:48;;;;;;;89.22;48.38;;;6.60;96.30;;;;;;5070629;28;20863;-88
2022/11/28 02:38:49;;;;;;;73.83;44.13;;;6.60;96.30;;;;;;5085680;28;20409;-87
2022/11/28 02:41:28;;;;;;;67.10;43.17;;;6.70;96.60;;;;;;5043562;28;20409;-87
2022/11/28 02:44:12;;;;;;;92.93;49.05;;;6.60;96.30;;;;;;5087692;28;20417;-88
2022/11/28 02:47:03;;;;;;;102.93;51.75;;;6.70;96.30;;;;;;5080917;28;20417;-88
2022/11/28 02:49:54;;;;;;;78.47;47.00;;;6.70;96.40;;;;;;5087774;28;20418;-87
2022/11/28 02:52:26;;;;;;;82.82;47.17;;;6.70;96.30;;;;;;5069785;28;20785;-86
2022/11/28 02:54:54;;;;;;;111.90;54.15;;;6.70;96.30;;;;;;5085407;28;20434;-87
2022/11/28 02:57:20;;;;;;;78.47;46.83;;;6.70;96.40;;;;;;5087360;28;20401;-86
2022/11/28 02:59:48;;;;;;;77.43;46.43;;;6.70;96.30;;;;;;5085193;28;20435;-87
2022/11/28 03:02:21;;;;;;;67.47;44.42;;;6.70;96.30;;;;;;5087531;28;20888;-88
2022/11/28 03:05:06;;;;;;;77.40;46.08;;;6.90;96.40;;;;;;5068418;28;20410;-85
2022/11/28 03:07:40;;;;;;;101.72;52.33;;;6.80;96.30;;;;;;5068993;28;20505;-88
2022/11/28 03:10:27;;;;;;;82.85;48.05;;;6.80;96.40;;;;;;5086978;28;20410;-86
2022/11/28 03:13:09;;;;;;;105.03;53.97;;;6.80;96.40;;;;;;5067915;28;20414;-87
2022/11/28 03:15:49;;;;;;;68.78;45.88;;;6.80;96.40;;;;;;5069751;28;20520;-88
2022/11/28 03:18:23;;;;;;;83.60;49.85;;;6.80;96.30;;;;;;5086632;28;20413;-87
2022/11/28 03:21:07;;;;;;;99.50;55.67;;;6.80;96.30;;;;;;5085099;28;20410;-87
2022/11/28 03:23:41;;;;;;;114.30;57.53;;;6.80;96.30;;;;;;5087307;28;20413;-87
2022/11/28 03:26:23;;;;;;;76.38;49.47;;;6.80;96.30;;;;;;5084716;28;20414;-87
2022/11/28 03:29:12;;;;;;;90.32;54.72;;;6.80;96.30;;;;;;5086309;28;21049;-87
2022/11/28 03:31:41;;;;;;;98.95;55.33;;;6.80;96.30;;;;;;5069088;28;20415;-88
2022/11/28 03:34:11;;;;;;;92.68;54.40;;;6.90;96.30;;;;;;5067721;28;20414;-87
2022/11/28 03:36:46;;;;;;;68.35;47.13;;;6.90;96.40;;;;;;5086841;28;21506;-88
2022/11/28 03:39:16;;;;;;;90.32;53.58;;;6.90;96.40;;;;;;5084953;28;20471;-87
2022/11/28 03:41:50;;;;;;;69.85;48.42;;;6.90;96.30;;;;;;5069206;28;20402;-88
2022/11/28 03:44:22;;;;;;;131.82;62.70;;;6.90;96.40;;;;;;5086527;28;20406;-87
2022/11/28 03:46:49;;;;;;;83.82;51.92;;;6.90;96.40;;;;;;5084978;28;20496;-86
2022/11/28 03:49:26;;;;;;;85.50;52.00;;;6.90;96.40;;;;;;5069423;28;20455;-87
2022/11/28 03:51:59;;;;;;;86.93;53.08;;;6.90;96.40;;;;;;5084251;28;21269;-88
2022/11/28 03:54:50;;;;;;;75.75;48.95;;;6.90;96.40;;;;;;5086369;28;20413;-87
2022/11/28 03:57:32;;;;;;;104.35;56.80;;;6.90;96.30;;;;;;5085621;28;20403;-87
2022/11/28 04:00:01;;;;;;;108.82;57.58;;;7.00;96.40;;;;;;5084486;28;20410;-87
2022/11/28 04:02:59;;;;;;;91.28;52.55;;;7.00;96.40;;;;;;5086312;28;20486;-87
2022/11/28 04:05:36;;;;;;;122.47;57.90;;;7.00;96.40;;;;;;5066775;28;20458;-87
2022/11/28 04:08:15;;;;;;;95.00;53.57;;;7.00;96.40;;;;;;5068308;28;20433;-87
2022/11/28 04:10:45;;;;;;;95.90;53.72;;;7.00;96.40;;;;;;5085897;28;20494;-88
2022/11/28 04:13:20;;;;;;;99.00;53.95;;;7.00;96.40;;;;;;5083701;28;20398;-87
2022/11/28 04:16:03;;;;;;;97.10;52.35;;;7.00;96.40;;;;;;5069156;28;20437;-86
2022/11/28 04:18:36;;;;;;;81.53;48.25;;;7.00;96.40;;;;;;5084667;28;20417;-86
2022/11/28 04:21:13;;;;;;;87.55;50.33;;;7.10;96.40;;;;;;5067701;28;20448;-87
2022/11/28 04:23:43;;;;;;;81.97;46.55;;;7.10;96.40;;;;;;5068643;28;20417;-87
2022/11/28 04:26:19;;;;;;;90.32;49.63;;;7.10;96.40;;;;;;5083552;28;20397;-87
2022/11/28 04:28:47;;;;;;;80.50;46.47;;;7.10;96.40;;;;;;5068632;28;20422;-87
2022/11/28 04:31:15;;;;;;;60.10;41.15;;;7.20;96.50;;;;;;5083867;28;20398;-87
2022/11/28 04:33:46;;;;;;;79.43;45.63;;;7.20;96.50;;;;;;5084947;28;20409;-88
2022/11/28 04:36:15;;;;;;;87.80;47.25;;;7.20;96.50;;;;;;5084717;28;20514;-87
2022/11/28 04:38:42;;;;;;;87.25;45.30;;;7.20;96.50;;;;;;5066297;28;20413;-87
2022/11/28 04:41:17;;;;;;;73.72;43.20;;;7.20;96.50;;;;;;5068341;28;20409;-87
2022/11/28 04:43:51;;;;;;;71.97;42.70;;;7.20;96.50;;;;;;5065841;28;20463;-86
2022/11/28 04:46:25;;;;;;;81.70;43.15;;;7.30;96.50;;;;;;5085398;28;20402;-87
2022/11/28 04:48:52;;;;;;;66.97;40.35;;;7.30;96.50;;;;;;5084286;28;20406;-86
2022/11/28 04:51:20;;;;;;;66.13;38.60;;;7.30;96.80;;;;;;5084034;28;20486;-87
2022/11/28 04:53:57;;;;;;;68.67;39.40;;;7.30;96.50;;;;;;5085198;28;20437;-87
2022/11/28 04:56:43;;;;;;;65.70;37.80;;;7.30;96.50;;;;;;5083095;28;20426;-87
2022/11/28 04:59:11;;;;;;;91.43;43.15;;;7.40;96.50;;;;;;5085530;28;20414;-87
2022/11/28 05:01:38;;;;;;;63.17;37.80;;;7.40;96.60;;;;;;5066522;28;20390;-87
2022/11/28 05:04:04;;;;;;;66.38;38.40;;;7.40;96.60;;;;;;5067509;28;20434;-86
2022/11/28 05:06:33;;;;;;;79.90;40.05;;;7.40;96.50;;;;;;5067335;28;20478;-87
2022/11/28 05:08:59;;;;;;;67.20;38.25;;;7.40;96.50;;;;;;5066262;28;20394;-86
2022/11/28 05:11:25;;;;;;;60.22;36.20;;;7.40;96.50;;;;;;5084477;28;20445;-87
2022/11/28 05:13:51;;;;;;;69.68;38.47;;;7.50;96.90;;;;;;5082434;28;20408;-87
2022/11/28 05:16:17;;;;;;;89.17;41.47;;;7.50;96.50;;;;;;5067707;28;20422;-87
2022/11/28 05:18:43;;;;;;;44.37;31.33;;;7.50;96.60;;;;;;5065614;28;20417;-86
2022/11/28 05:21:09;;;;;;;55.85;34.45;;;7.50;96.50;;;;;;5067376;28;20410;-86
2022/11/28 05:23:39;;;;;;;75.82;37.75;;;7.50;96.80;;;;;;5084236;28;20402;-86
2022/11/28 05:26:11;;;;;;;63.25;35.28;;;7.50;96.60;;;;;;5066143;28;20932;-87
2022/11/28 05:28:38;;;;;;;64.65;35.88;;;7.50;96.50;;;;;;5067399;28;20401;-87
2022/11/28 05:31:03;;;;;;;58.75;33.72;;;7.50;96.50;;;;;;5065402;28;20402;-87
2022/11/28 05:33:31;;;;;;;62.42;34.60;;;7.60;96.50;;;;;;5084233;28;20464;-87
2022/11/28 05:36:06;;;;;;;53.80;33.55;;;7.60;96.50;;;;;;5065450;28;20859;-87
2022/11/28 05:38:32;;;;;;;48.20;30.60;;;7.50;96.50;;;;;;5067144;28;20483;-87
2022/11/28 05:40:58;;;;;;;62.88;34.25;;;7.60;96.50;;;;;;5083242;28;20413;-86
2022/11/28 05:43:25;;;;;;;46.58;30.70;;;7.60;96.50;;;;;;5082925;28;20401;-88
2022/11/28 05:45:51;;;;;;;59.25;33.80;;;7.60;96.50;;;;;;5067165;28;20398;-87
2022/11/28 05:48:16;;;;;;;38.73;27.43;;;7.60;96.50;;;;;;5081488;28;20978;-87
2022/11/28 05:50:42;;;;;;;50.83;31.80;;;7.60;96.40;;;;;;5083598;28;20410;-88
2022/11/28 05:53:08;;;;;;;35.78;26.98;;;7.70;96.50;;;;;;5081915;28;20398;-85
2022/11/28 05:55:36;;;;;;;52.92;31.70;;;7.60;96.40;;;;;;5067035;28;20421;-88
2022/11/28 05:58:02;;;;;;;51.53;31.75;;;7.60;96.50;;;;;;5083125;28;20402;-87
2022/11/28 06:00:27;;;;;;;49.57;31.87;;;7.60;96.40;;;;;;5066159;28;20877;-87
2022/11/28 06:02:53;;;;;;;41.23;29.37;;;7.60;96.40;;;;;;5083893;28;20408;-86
2022/11/28 06:05:19;;;;;;;54.80;31.85;;;7.60;96.40;;;;;;5065313;28;20961;-86
2022/11/28 06:07:44;;;;;;;52.40;31.33;;;7.70;96.50;;;;;;5067000;28;20420;-87
2022/11/28 06:10:10;;;;;;;40.90;28.63;;;7.70;96.50;;;;;;5081602;28;20410;-87
2022/11/28 06:12:36;;;;;;;42.75;29.08;;;7.60;96.40;;;;;;5083662;28;20398;-87
2022/11/28 06:15:01;;;;;;;42.55;29.00;;;7.70;96.50;;;;;;5082357;28;20516;-86
2022/11/28 06:17:27;;;;;;;36.07;26.20;;;7.70;96.50;;;;;;5083229;28;20872;-87
2022/11/28 06:19:52;;;;;;;48.20;29.95;;;7.70;96.50;;;;;;5083405;28;20398;-87
2022/11/28 06:22:18;;;;;;;57.23;31.17;;;7.70;96.40;;;;;;5079444;28;20421;-88
2022/11/28 06:24:43;;;;;;;41.97;28.52;;;7.70;96.40;;;;;;5086770;28;20947;-89
2022/11/28 06:27:09;;;;;;;49.60;30.17;;;7.70;96.40;;;;;;5096181;28;20465;-90
2022/11/28 06:29:35;;;;;;;47.75;29.65;;;7.70;96.50;;;;;;5072761;28;20393;-87
2022/11/28 06:32:00;;;;;;;55.05;31.33;;;7.80;96.50;;;;;;5086360;28;20890;-87
2022/11/28 06:34:26;;;;;;;47.67;28.93;;;7.80;96.50;;;;;;5068889;28;20505;-86
2022/11/28 06:36:52;;;;;;;42.60;28.25;;;7.80;96.50;;;;;;5081565;28;20907;-86
2022/11/28 06:39:17;;;;;;;41.85;27.77;;;7.80;96.50;;;;;;5066058;28;20443;-87
2022/11/28 06:41:43;;;;;;;53.40;30.00;;;7.80;96.50;;;;;;5083401;28;20491;-87
2022/11/28 06:44:13;;;;;;;46.42;28.40;;;7.80;96.50;;;;;;5075489;28;20545;-90
2022/11/28 06:46:39;;;;;;;54.00;29.55;;;7.80;96.50;;;;;;5094150;28;20439;-87
2022/11/28 06:49:05;;;;;;;62.50;30.88;;;7.90;96.50;;;;;;5092528;28;20437;-89
2022/11/28 06:51:30;;;;;;;51.83;29.60;;;7.80;96.50;;;;;;5095861;28;20414;-88
2022/11/28 06:53:56;;;;;;;47.70;28.33;;;7.80;96.50;;;;;;5082770;28;20489;-89
2022/11/28 06:56:22;;;;;;;39.37;27.20;;;7.80;96.50;;;;;;5077947;28;20951;-89
2022/11/28 06:58:54;;;;;;;45.90;27.53;;;7.80;96.60;;;;;;5088780;28;20856;-89
2022/11/28 07:01:22;;;;;;;39.70;25.13;;;7.80;96.50;;;;;;5096552;28;20776;-88
2022/11/28 07:03:48;;;;;;;35.88;24.02;;;7.80;96.50;;;;;;5091167;28;20432;-88
2022/11/28 07:06:16;;;;;;;44.27;26.23;;;7.90;96.60;;;;;;5088117;28;20440;-89
2022/11/28 07:08:42;;;;;;;56.75;28.05;;;7.80;96.60;;;;;;5090993;28;20419;-89
2022/11/28 07:11:16;;;;;;;58.03;28.17;;;7.90;96.60;;;;;;5086441;28;20404;-88
2022/11/28 07:13:44;;;;;;;50.13;26.25;;;7.90;96.50;;;;;;5098134;28;20440;-88
2022/11/28 07:16:21;;;;;;;42.27;24.23;;;7.90;96.60;;;;;;5084001;28;20430;-87
2022/11/28 07:18:48;;;;;;;35.88;22.65;;;7.90;96.50;;;;;;5075001;28;20432;-88
2022/11/28 07:21:14;;;;;;;33.83;21.63;;;7.90;96.50;;;;;;5086468;28;20406;-88
2022/11/28 07:23:40;;;;;;;35.35;22.00;;;7.90;96.50;;;;;;5098899;28;20504;-88
2022/11/28 07:26:07;;;;;;;37.00;22.50;;;7.90;96.50;;;;;;5079572;28;20418;-88
2022/11/28 07:28:33;;;;;;;32.92;21.77;;;8.00;96.50;;;;;;5097914;28;20451;-88
2022/11/28 07:31:02;;;;;;;33.67;21.35;;;7.90;96.40;;;;;;5100815;28;20510;-87
2022/11/28 07:33:28;;;;;;;36.78;22.27;;;8.00;96.50;;;;;;5100975;28;20896;-86
2022/11/28 07:35:53;;;;;;;36.17;21.38;;;8.00;96.50;;;;;;5088647;28;20982;-87
2022/11/28 07:38:19;;;;;;;35.13;21.65;;;8.00;96.70;;;;;;5098398;28;21239;-87
2022/11/28 07:40:45;;;;;;;36.05;21.67;;;8.10;96.50;;;;;;5081493;28;20409;-87
2022/11/28 07:43:10;;;;;;;43.73;23.70;;;8.00;96.50;;;;;;5087075;28;20773;-87
2022/11/28 07:45:39;;;;;;;31.40;20.52;;;8.00;96.40;;;;;;5067617;28;20776;-86
2022/11/28 07:48:05;;;;;;;34.88;21.67;;;8.00;96.40;;;;;;5086360;28;20406;-87
2022/11/28 07:50:31;;;;;;;36.63;21.73;;;8.00;96.40;;;;;;5085503;28;20980;-87
2022/11/28 07:52:56;;;;;;;51.50;24.57;;;8.00;96.40;;;;;;5085431;28;20406;-87
2022/11/28 07:55:22;;;;;;;36.90;21.17;;;8.00;96.50;;;;;;5086141;28;20433;-86
2022/11/28 07:57:47;;;;;;;35.13;20.80;;;8.00;96.40;;;;;;5084272;28;20414;-86
2022/11/28 08:00:14;;;;;;;50.55;24.50;;;8.00;96.50;;;;;;5086130;28;20491;-86
2022/11/28 08:02:39;;;;;;;34.53;20.52;;;8.10;96.50;;;;;;5066520;28;20406;-86
2022/11/28 08:05:05;;;;;;;41.65;22.08;;;8.10;96.50;;;;;;5086515;28;20756;-85
2022/11/28 08:07:31;;;;;;;39.17;21.85;;;8.10;96.40;;;;;;5067087;28;20493;-86
2022/11/28 08:09:56;;;;;;;39.60;22.20;;;8.10;96.40;;;;;;5068561;28;20499;-86
2022/11/28 08:12:22;;;;;;;31.55;19.55;;;8.10;96.40;;;;;;5084292;28;20422;-86
2022/11/28 08:14:48;;;;;;;43.63;22.60;;;8.10;96.40;;;;;;5084337;28;20461;-86
2022/11/28 08:17:13;;;;;;;42.83;22.33;;;8.10;96.40;;;;;;5085907;28;20402;-86
2022/11/28 08:19:39;;;;;;;44.28;22.35;;;8.10;96.40;;;;;;5066974;28;20418;-87
2022/11/28 08:22:04;;;;;;;40.07;21.33;;;8.20;96.40;;;;;;5085968;28;20410;-86
2022/11/28 08:24:30;;;;;;;30.67;18.63;;;8.20;96.40;;;;;;5066669;28;20405;-85
2022/11/28 08:26:56;;;;;;;37.60;20.00;;;8.20;96.40;;;;;;5085554;28;20394;-86
2022/11/28 08:29:21;;;;;;;42.85;21.25;;;8.20;96.70;;;;;;5067603;28;20441;-85
2022/11/28 08:31:47;;;;;;;41.40;21.08;;;8.20;96.40;;;;;;5084329;28;20433;-87
2022/11/28 08:34:12;;;;;;;34.83;19.20;;;8.20;96.50;;;;;;5085169;28;20460;-87
2022/11/28 08:36:38;;;;;;;29.83;17.35;;;8.20;96.40;;;;;;5083727;28;20924;-88
2022/11/28 08:39:04;;;;;;;27.38;16.92;;;8.30;96.50;;;;;;5085764;28;20596;-87
2022/11/28 08:41:30;;;;;;;32.35;17.75;;;8.20;96.40;;;;;;5066373;28;20402;-88
2022/11/28 08:43:55;;;;;;;29.23;17.57;;;8.20;96.50;;;;;;5085599;28;20796;-88
2022/11/28 08:46:22;;;;;;;36.83;18.47;;;8.20;96.50;;;;;;5083844;28;20505;-87
2022/11/28 08:48:50;;;;;;;30.63;17.40;;;8.30;96.40;;;;;;5083985;28;20409;-87
2022/11/28 08:51:19;;;;;;;33.38;17.98;;;8.30;96.40;;;;;;5066168;28;20483;-87
2022/11/28 08:53:45;;;;;;;32.10;17.13;;;8.30;96.40;;;;;;5065938;28;20768;-87
2022/11/28 08:56:12;;;;;;;41.20;19.98;;;8.40;96.40;;;;;;5067300;28;20437;-86
2022/11/28 08:58:37;;;;;;;30.63;17.13;;;8.30;96.40;;;;;;5064578;28;20402;-87
2022/11/28 09:01:03;;;;;;;39.28;19.25;;;8.30;96.40;;;;;;5067229;28;20408;-87
2022/11/28 09:03:29;;;;;;;34.65;17.55;;;8.30;96.40;;;;;;5064718;28;20406;-86
2022/11/28 09:06:01;;;;;;;31.23;18.00;;;8.30;96.40;;;;;;5067562;28;20398;-88
2022/11/28 09:08:26;;;;;;;31.45;18.35;;;8.30;96.40;;;;;;5083751;28;20406;-85
2022/11/28 09:10:52;;;;;;;40.53;20.30;;;8.40;96.40;;;;;;5066501;28;20403;-87
2022/11/28 09:13:18;;;;;;;42.92;20.95;;;8.30;96.40;;;;;;5084559;28;20420;-87
2022/11/28 09:15:45;;;;;;;44.22;21.30;;;8.40;96.50;;;;;;5082722;28;20426;-87
2022/11/28 09:18:13;;;;;;;43.33;21.27;;;8.40;96.40;;;;;;5084924;28;20500;-87
2022/11/28 09:20:39;;;;;;;69.47;26.60;;;8.40;96.40;;;;;;5082367;28;20402;-87
2022/11/28 09:23:05;;;;;;;51.92;23.55;;;8.40;96.40;;;;;;5067470;28;20452;-87
2022/11/28 09:25:34;;;;;;;60.00;25.80;;;8.50;96.50;;;;;;5082972;28;20848;-87
2022/11/28 09:28:00;;;;;;;49.72;24.00;;;8.50;96.40;;;;;;5067068;28;20402;-87
2022/11/28 09:30:26;;;;;;;44.13;23.70;;;8.60;96.40;;;;;;5083997;28;20409;-87
2022/11/28 09:32:51;;;;;;;61.80;26.95;;;8.50;96.30;;;;;;5082350;28;20417;-87
2022/11/28 09:35:18;;;;;;;52.63;26.17;;;8.50;96.30;;;;;;5084052;28;20839;-87
2022/11/28 09:37:43;;;;;;;65.50;28.00;;;8.50;96.30;;;;;;5065854;28;20406;-87
2022/11/28 09:40:18;;;;;;;59.87;26.90;;;8.60;96.30;;;;;;5084042;28;20398;-86
2022/11/28 09:42:45;;;;;;;55.60;26.58;;;8.60;96.30;;;;;;5082745;28;20924;-86
2022/11/28 09:45:18;;;;;;;88.78;31.95;;;8.60;96.40;;;;;;5083511;28;20406;-86
2022/11/28 09:48:13;;;;;;;60.17;26.92;;;8.70;96.40;;;;;;5083955;28;20434;-86
2022/11/28 09:50:40;;;;;;;62.83;28.52;;;8.70;96.40;;;;;;5078731;28;20757;-86
2022/11/28 09:53:26;;;;;;;61.88;28.23;;;8.70;96.60;;;;;;5084305;28;20394;-86
2022/11/28 09:56:01;;;;;;;68.77;29.00;;;8.70;96.30;;;;;;5082594;28;20474;-86
2022/11/28 09:58:48;;;;;;;73.37;30.83;;;8.70;96.30;;;;;;5083134;28;20477;-87
2022/11/28 10:01:30;;;;;;;63.47;29.73;;;8.70;96.30;;;;;;5067153;28;20942;-87
2022/11/28 10:04:11;;;;;;;69.33;30.67;;;8.80;96.30;;;;;;5082068;28;20421;-86
2022/11/28 10:07:09;;;;;;;63.72;29.08;;;8.80;96.30;;;;;;5083709;28;20919;-87
2022/11/28 10:09:50;;;;;;;65.18;30.38;;;8.80;96.30;;;;;;5083601;28;20479;-87
2022/11/28 10:12:24;;;;;;;84.28;33.40;;;8.80;96.20;;;;;;5082211;28;20966;-88
2022/11/28 10:15:15;;;;;;;98.33;35.90;;;8.80;96.20;;;;;;5102786;28;21174;-86
2022/11/28 10:18:06;;;;;;;91.85;34.10;;;8.80;96.20;;;;;;5091641;28;20406;-87
2022/11/28 10:20:38;;;;;;;62.13;29.77;;;8.90;96.30;;;;;;5091033;28;20519;-88
2022/11/28 10:23:21;;;;;;;86.55;33.15;;;9.00;96.20;;;;;;5087522;28;20400;-88
2022/11/28 10:26:01;;;;;;;100.60;36.65;;;8.90;96.20;;;;;;5080831;28;20412;-88
2022/11/28 10:28:34;;;;;;;97.80;36.15;;;8.90;96.30;;;;;;5093319;28;20426;-87
2022/11/28 10:31:09;;;;;;;145.98;41.80;;;8.90;96.20;;;;;;5086933;28;20427;-84
2022/11/28 10:34:01;;;;;;;155.90;42.05;;;9.00;96.30;;;;;;5102248;28;20415;-85
2022/11/28 10:36:33;;;;;;;136.30;38.22;;;8.90;96.30;;;;;;5093816;28;20424;-86
2022/11/28 10:39:09;;;;;;;97.30;34.33;;;8.90;96.40;;;;;;5106072;28;20416;-84
2022/11/28 10:41:43;;;;;;;85.43;33.55;;;8.90;96.40;;;;;;5107197;28;20424;-86
2022/11/28 10:44:29;;;;;;;80.63;32.87;;;8.90;96.40;;;;;;5088324;28;20406;-87
2022/11/28 10:47:06;;;;;;;63.58;29.08;;;9.00;96.40;;;;;;5092359;28;20904;-88
2022/11/28 10:49:32;;;;;;;57.88;27.65;;;9.00;96.40;;;;;;5071672;28;20417;-86
2022/11/28 10:52:25;;;;;;;57.93;27.87;;;9.00;96.50;;;;;;5097848;28;20406;-88
2022/11/28 10:54:50;;;;;;;110.93;34.42;;;9.00;96.40;;;;;;5075389;28;20434;-88
2022/11/28 10:57:50;;;;;;;85.38;32.88;;;9.00;96.40;;;;;;5094200;28;20410;-87
2022/11/28 11:00:17;;;;;;;73.90;28.85;;;9.00;96.50;;;;;;5096766;28;20396;-86
2022/11/28 11:02:55;;;;;;;64.97;28.75;;;9.10;96.50;;;;;;5089186;28;20416;-86
2022/11/28 11:05:30;;;;;;;78.70;30.33;;;9.10;96.50;;;;;;5075166;28;20453;-87
2022/11/28 11:08:01;;;;;;;66.38;28.40;;;9.10;96.50;;;;;;5078150;28;20404;-87
2022/11/28 11:10:36;;;;;;;64.75;28.30;;;9.10;96.40;;;;;;5099006;28;20458;-86
2022/11/28 11:13:14;;;;;;;48.83;24.30;;;9.10;96.40;;;;;;5079165;28;20412;-87
2022/11/28 11:15:40;;;;;;;38.85;22.92;;;9.10;96.30;;;;;;5094657;28;20426;-85
2022/11/28 11:18:23;;;;;;;60.63;27.80;;;9.10;96.30;;;;;;5086180;28;20414;-85
2022/11/28 11:20:49;;;;;;;42.20;23.23;;;9.10;96.40;;;;;;5097346;28;20496;-89
2022/11/28 11:23:18;;;;;;;52.63;25.08;;;9.00;96.20;;;;;;5098826;28;20404;-87
2022/11/28 11:25:53;;;;;;;67.25;27.75;;;9.10;96.30;;;;;;5088293;28;20453;-85
2022/11/28 11:28:30;;;;;;;46.28;23.52;;;9.00;96.30;;;;;;5107382;28;20440;-85
2022/11/28 11:31:12;;;;;;;57.55;26.10;;;9.20;96.40;;;;;;5105501;28;20411;-86
2022/11/28 11:33:38;;;;;;;79.03;28.17;;;9.20;96.40;;;;;;5106453;28;20408;-86
2022/11/28 11:36:20;;;;;;;58.20;26.60;;;9.30;96.40;;;;;;5106405;28;20436;-87
2022/11/28 11:38:45;;;;;;;50.97;23.70;;;9.20;96.20;;;;;;5088312;28;20397;-84
2022/11/28 11:41:30;;;;;;;42.10;22.23;;;9.20;96.10;;;;;;5089956;28;20411;-87
2022/11/28 11:44:28;;;;;;;82.35;29.27;;;9.30;96.20;;;;;;5088155;28;20405;-86
2022/11/28 11:47:08;;;;;;;69.30;26.17;;;9.20;96.30;;;;;;5086997;28;20415;-87
2022/11/28 11:49:36;;;;;;;63.95;25.83;;;9.30;96.30;;;;;;5106742;28;20404;-87
2022/11/28 11:52:13;;;;;;;56.28;24.95;;;9.40;96.30;;;;;;5104722;28;20405;-87
2022/11/28 11:54:59;;;;;;;59.17;25.70;;;9.40;96.20;;;;;;5106754;28;20420;-87
2022/11/28 11:57:38;;;;;;;64.47;26.33;;;9.40;96.10;;;;;;5105234;28;20411;-86
2022/11/28 12:00:13;;;;;;;53.78;23.35;;;9.50;96.10;;;;;;5088450;28;20384;-88
2022/11/28 12:02:45;;;;;;;37.80;20.83;;;9.50;95.90;;;;;;5107026;28;20398;-87
2022/11/28 12:05:14;;;;;;;60.95;24.60;;;9.60;95.90;;;;;;5104516;28;20794;-87
2022/11/28 12:07:49;;;;;;;35.92;20.52;;;9.50;96.10;;;;;;5106603;28;20423;-86
2022/11/28 12:10:26;;;;;;;104.43;30.23;;;9.40;95.80;;;;;;5110505;28;20413;-92
2022/11/28 12:12:52;;;;;;;49.97;23.40;;;9.50;96.30;;;;;;5092155;28;20409;-92
2022/11/28 12:16:06;;;;;;;69.10;26.23;;;9.70;96.30;;;;;;5091789;28;20428;-90
2022/11/28 12:18:40;;;;;;;51.97;22.90;;;9.60;96.00;;;;;;5065479;28;20404;-91
2022/11/28 12:21:20;;;;;;;70.35;26.02;;;9.70;95.90;;;;;;5095921;28;20767;-93
2022/11/28 12:24:11;;;;;;;44.10;22.13;;;9.70;96.00;;;;;;5089436;28;20408;-92
2022/11/28 12:26:43;;;;;;;65.93;27.15;;;9.60;95.60;;;;;;5091420;28;20474;-91
2022/11/28 12:29:18;;;;;;;62.20;25.27;;;9.60;95.80;;;;;;5071248;28;20484;-91
2022/11/28 12:32:15;;;;;;;59.47;25.23;;;9.60;95.80;;;;;;5093292;28;20935;-91
2022/11/28 12:35:06;;;;;;;56.58;24.80;;;9.60;95.90;;;;;;5080186;28;20416;-92
2022/11/28 12:37:40;;;;;;;73.73;28.63;;;9.60;95.90;;;;;;5108392;28;20902;-92
2022/11/28 12:40:46;;;;;;;68.85;28.55;;;9.60;95.90;;;;;;5088901;28;20435;-91
2022/11/28 12:43:51;;;;;;;64.38;25.95;;;9.60;95.90;;;;;;5106181;28;20440;-92
2022/11/28 12:46:22;;;;;;;75.57;28.77;;;9.60;96.00;;;;;;5076186;28;20404;-91
2022/11/28 12:49:29;;;;;;;70.38;28.83;;;9.60;96.00;;;;;;5089038;28;20434;-91
2022/11/28 12:52:20;;;;;;;63.13;26.90;;;9.50;95.90;;;;;;5067836;28;20475;-91
2022/11/28 12:54:59;;;;;;;49.45;25.35;;;9.60;95.90;;;;;;5090781;28;20468;-92
2022/11/28 12:57:38;;;;;;;69.70;28.57;;;9.60;95.80;;;;;;5106316;28;20396;-92
2022/11/28 13:00:14;;;;;;;89.43;31.17;;;9.60;95.90;;;;;;5090351;28;20400;-92